sensor_id;sensor_type;location;lat;lon;timestamp;pressure;altitude;pressure_sealevel;temperature;humidity
73284;BME280;61519;60.050;18.582;2023-12-22T00:00:09;96661.59;;;3.01;74.57
73284;BME280;61519;60.050;18.582;2023-12-22T00:02:34;96623.16;;;2.80;74.20
73284;BME280;61519;60.050;18.582;2023-12-22T00:04:59;96655.94;;;3.04;74.48
73284;BME280;61519;60.050;18.582;2023-12-22T00:07:25;96653.91;;;3.06;74.52
73284;BME280;61519;60.050;18.582;2023-12-22T00:09:50;96647.91;;;2.94;74.53
73284;BME280;61519;60.050;18.582;2023-12-22T00:12:15;96657.50;;;3.05;74.68
73284;BME280;61519;60.050;18.582;2023-12-22T00:14:41;96644.88;;;2.97;74.51
73284;BME280;61519;60.050;18.582;2023-12-22T00:17:07;96646.78;;;3.01;74.57
73284;BME280;61519;60.050;18.582;2023-12-22T00:19:32;96665.44;;;3.10;74.46
73284;BME280;61519;60.050;18.582;2023-12-22T00:21:57;96658.53;;;3.04;74.54
73284;BME280;61519;60.050;18.582;2023-12-22T00:24:24;96651.09;;;2.96;74.59
73284;BME280;61519;60.050;18.582;2023-12-22T00:26:49;96633.69;;;2.85;74.53
73284;BME280;61519;60.050;18.582;2023-12-22T00:29:14;96637.28;;;2.84;74.31
73284;BME280;61519;60.050;18.582;2023-12-22T00:31:40;96661.16;;;3.04;74.26
73284;BME280;61519;60.050;18.582;2023-12-22T00:34:05;96651.66;;;2.98;74.41
73284;BME280;61519;60.050;18.582;2023-12-22T00:36:30;96643.75;;;2.93;74.36
73284;BME280;61519;60.050;18.582;2023-12-22T00:38:56;96641.94;;;2.82;74.46
73284;BME280;61519;60.050;18.582;2023-12-22T00:41:21;96663.75;;;3.04;74.44
73284;BME280;61519;60.050;18.582;2023-12-22T00:43:46;96636.28;;;2.85;74.33
73284;BME280;61519;60.050;18.582;2023-12-22T00:46:13;96680.03;;;2.99;74.57
73284;BME280;61519;60.050;18.582;2023-12-22T00:48:38;96670.91;;;2.97;74.25
73284;BME280;61519;60.050;18.582;2023-12-22T00:51:06;96641.59;;;2.78;74.20
73284;BME280;61519;60.050;18.582;2023-12-22T00:53:32;96660.28;;;2.87;74.54
73284;BME280;61519;60.050;18.582;2023-12-22T00:55:57;96661.94;;;2.81;74.40
73284;BME280;61519;60.050;18.582;2023-12-22T00:58:23;96672.81;;;2.78;74.76
73284;BME280;61519;60.050;18.582;2023-12-22T01:00:48;96694.53;;;2.84;74.41
73284;BME280;61519;60.050;18.582;2023-12-22T01:03:13;96641.16;;;2.58;74.56
73284;BME280;61519;60.050;18.582;2023-12-22T01:05:39;96683.56;;;2.82;74.61
73284;BME280;61519;60.050;18.582;2023-12-22T01:08:04;96680.31;;;2.75;74.59
73284;BME280;61519;60.050;18.582;2023-12-22T01:10:30;96651.22;;;2.54;74.55
73284;BME280;61519;60.050;18.582;2023-12-22T01:12:55;96670.66;;;2.63;74.37
73284;BME280;61519;60.050;18.582;2023-12-22T01:15:20;96630.31;;;2.38;74.59
73284;BME280;61519;60.050;18.582;2023-12-22T01:17:46;96619.56;;;2.34;74.55
73284;BME280;61519;60.050;18.582;2023-12-22T01:20:11;96653.72;;;2.49;74.58
73284;BME280;61519;60.050;18.582;2023-12-22T01:22:36;96674.41;;;2.67;74.46
73284;BME280;61519;60.050;18.582;2023-12-22T01:25:04;96674.97;;;2.69;74.47
73284;BME280;61519;60.050;18.582;2023-12-22T01:27:30;96683.69;;;2.75;74.69
73284;BME280;61519;60.050;18.582;2023-12-22T01:29:56;96649.66;;;2.53;74.72
73284;BME280;61519;60.050;18.582;2023-12-22T01:32:21;96677.38;;;2.71;74.86
73284;BME280;61519;60.050;18.582;2023-12-22T01:34:47;96646.25;;;2.53;74.75
73284;BME280;61519;60.050;18.582;2023-12-22T01:37:12;96663.44;;;2.65;74.70
73284;BME280;61519;60.050;18.582;2023-12-22T01:39:37;96678.03;;;2.78;74.72
73284;BME280;61519;60.050;18.582;2023-12-22T01:42:03;96663.22;;;2.55;74.58
73284;BME280;61519;60.050;18.582;2023-12-22T01:44:29;96686.06;;;2.77;74.68
73284;BME280;61519;60.050;18.582;2023-12-22T01:46:54;96658.59;;;2.57;74.65
73284;BME280;61519;60.050;18.582;2023-12-22T01:49:21;96669.09;;;2.62;74.53
73284;BME280;61519;60.050;18.582;2023-12-22T01:51:48;96640.59;;;2.44;74.47
73284;BME280;61519;60.050;18.582;2023-12-22T01:54:15;96671.22;;;2.65;74.39
73284;BME280;61519;60.050;18.582;2023-12-22T01:56:44;96669.78;;;2.58;74.71
73284;BME280;61519;60.050;18.582;2023-12-22T01:59:10;96682.00;;;2.69;74.63
73284;BME280;61519;60.050;18.582;2023-12-22T02:01:36;96683.13;;;2.73;74.69
73284;BME280;61519;60.050;18.582;2023-12-22T02:04:02;96642.63;;;2.42;74.70
73284;BME280;61519;60.050;18.582;2023-12-22T02:06:30;96691.16;;;2.72;74.53
73284;BME280;61519;60.050;18.582;2023-12-22T02:08:56;96665.69;;;2.50;74.47
73284;BME280;61519;60.050;18.582;2023-12-22T02:11:22;96641.41;;;2.45;74.54
73284;BME280;61519;60.050;18.582;2023-12-22T02:13:47;96692.50;;;2.62;74.71
73284;BME280;61519;60.050;18.582;2023-12-22T02:16:22;96691.38;;;2.70;74.52
73284;BME280;61519;60.050;18.582;2023-12-22T02:18:52;96660.97;;;2.47;74.62
73284;BME280;61519;60.050;18.582;2023-12-22T02:21:20;96691.03;;;2.55;74.60
73284;BME280;61519;60.050;18.582;2023-12-22T02:23:47;96697.59;;;2.57;74.85
73284;BME280;61519;60.050;18.582;2023-12-22T02:26:17;96686.84;;;2.54;74.48
73284;BME280;61519;60.050;18.582;2023-12-22T02:28:47;96680.84;;;2.42;74.63
73284;BME280;61519;60.050;18.582;2023-12-22T02:31:17;96699.84;;;2.65;74.67
73284;BME280;61519;60.050;18.582;2023-12-22T02:33:48;96703.25;;;2.66;74.66
73284;BME280;61519;60.050;18.582;2023-12-22T02:36:17;96687.22;;;2.57;74.76
73284;BME280;61519;60.050;18.582;2023-12-22T02:38:44;96671.81;;;2.44;74.95
73284;BME280;61519;60.050;18.582;2023-12-22T02:41:10;96628.16;;;2.23;74.59
73284;BME280;61519;60.050;18.582;2023-12-22T02:43:36;96697.59;;;2.57;74.75
73284;BME280;61519;60.050;18.582;2023-12-22T02:46:01;96664.56;;;2.46;74.67
73284;BME280;61519;60.050;18.582;2023-12-22T02:48:27;96656.19;;;2.44;74.51
73284;BME280;61519;60.050;18.582;2023-12-22T02:50:52;96689.34;;;2.60;74.64
73284;BME280;61519;60.050;18.582;2023-12-22T02:53:17;96707.78;;;2.71;74.76
73284;BME280;61519;60.050;18.582;2023-12-22T02:55:42;96695.09;;;2.62;74.86
73284;BME280;61519;60.050;18.582;2023-12-22T02:58:08;96662.31;;;2.38;74.77
73284;BME280;61519;60.050;18.582;2023-12-22T03:00:33;96674.97;;;2.46;74.73
73284;BME280;61519;60.050;18.582;2023-12-22T03:02:58;96675.31;;;2.38;74.69
73284;BME280;61519;60.050;18.582;2023-12-22T03:05:24;96681.78;;;2.47;74.40
73284;BME280;61519;60.050;18.582;2023-12-22T03:07:49;96687.06;;;2.41;74.52
73284;BME280;61519;60.050;18.582;2023-12-22T03:10:14;96668.41;;;2.32;74.64
73284;BME280;61519;60.050;18.582;2023-12-22T03:12:40;96666.03;;;2.31;74.73
73284;BME280;61519;60.050;18.582;2023-12-22T03:15:05;96679.50;;;2.39;74.66
73284;BME280;61519;60.050;18.582;2023-12-22T03:17:31;96697.94;;;2.49;74.75
73284;BME280;61519;60.050;18.582;2023-12-22T03:19:56;96644.91;;;2.27;74.64
73284;BME280;61519;60.050;18.582;2023-12-22T03:22:22;96680.75;;;2.48;74.72
73284;BME280;61519;60.050;18.582;2023-12-22T03:24:47;96659.59;;;2.33;74.68
73284;BME280;61519;60.050;18.582;2023-12-22T03:27:12;96700.75;;;2.59;74.52
73284;BME280;61519;60.050;18.582;2023-12-22T03:29:42;96664.34;;;2.36;74.97
73284;BME280;61519;60.050;18.582;2023-12-22T03:32:07;96640.59;;;2.21;74.69
73284;BME280;61519;60.050;18.582;2023-12-22T03:34:32;96690.81;;;2.56;74.71
73284;BME280;61519;60.050;18.582;2023-12-22T03:36:58;96683.25;;;2.43;74.55
73284;BME280;61519;60.050;18.582;2023-12-22T03:39:23;96691.72;;;2.50;74.62
73284;BME280;61519;60.050;18.582;2023-12-22T03:41:48;96654.16;;;2.23;74.70
73284;BME280;61519;60.050;18.582;2023-12-22T03:44:14;96673.25;;;2.29;74.44
73284;BME280;61519;60.050;18.582;2023-12-22T03:46:39;96703.72;;;2.51;74.50
73284;BME280;61519;60.050;18.582;2023-12-22T03:49:04;96716.81;;;2.45;74.78
73284;BME280;61519;60.050;18.582;2023-12-22T03:51:30;96716.56;;;2.46;74.46
73284;BME280;61519;60.050;18.582;2023-12-22T03:53:55;96686.03;;;2.30;74.67
73284;BME280;61519;60.050;18.582;2023-12-22T03:56:20;96688.06;;;2.28;74.60
73284;BME280;61519;60.050;18.582;2023-12-22T03:58:46;96723.38;;;2.47;74.45
73284;BME280;61519;60.050;18.582;2023-12-22T04:01:14;96682.84;;;2.28;74.72
73284;BME280;61519;60.050;18.582;2023-12-22T04:03:39;96677.78;;;2.22;74.63
73284;BME280;61519;60.050;18.582;2023-12-22T04:06:05;96699.72;;;2.37;74.73
73284;BME280;61519;60.050;18.582;2023-12-22T04:08:30;96723.38;;;2.47;74.93
73284;BME280;61519;60.050;18.582;2023-12-22T04:10:56;96726.97;;;2.46;74.63
73284;BME280;61519;60.050;18.582;2023-12-22T04:13:21;96719.97;;;2.35;74.74
73284;BME280;61519;60.050;18.582;2023-12-22T04:15:47;96725.72;;;2.37;74.48
73284;BME280;61519;60.050;18.582;2023-12-22T04:18:12;96707.41;;;2.32;74.73
73284;BME280;61519;60.050;18.582;2023-12-22T04:20:37;96745.41;;;2.45;74.67
73284;BME280;61519;60.050;18.582;2023-12-22T04:23:03;96687.13;;;2.11;74.65
73284;BME280;61519;60.050;18.582;2023-12-22T04:25:28;96723.13;;;2.37;74.71
73284;BME280;61519;60.050;18.582;2023-12-22T04:27:54;96710.88;;;2.26;74.84
73284;BME280;61519;60.050;18.582;2023-12-22T04:30:19;96689.84;;;2.16;74.72
73284;BME280;61519;60.050;18.582;2023-12-22T04:32:44;96729.91;;;2.38;74.48
73284;BME280;61519;60.050;18.582;2023-12-22T04:35:10;96728.34;;;2.37;74.64
73284;BME280;61519;60.050;18.582;2023-12-22T04:37:35;96733.63;;;2.42;74.72
73284;BME280;61519;60.050;18.582;2023-12-22T04:40:05;96739.88;;;2.41;74.98
73284;BME280;61519;60.050;18.582;2023-12-22T04:42:31;96717.69;;;2.27;74.74
73284;BME280;61519;60.050;18.582;2023-12-22T04:44:56;96722.09;;;2.27;74.66
73284;BME280;61519;60.050;18.582;2023-12-22T04:47:22;96716.53;;;2.23;74.58
73284;BME280;61519;60.050;18.582;2023-12-22T04:49:50;96738.16;;;2.35;74.86
73284;BME280;61519;60.050;18.582;2023-12-22T04:52:15;96724.44;;;2.28;74.89
73284;BME280;61519;60.050;18.582;2023-12-22T04:54:40;96719.47;;;2.27;74.67
73284;BME280;61519;60.050;18.582;2023-12-22T04:57:06;96764.28;;;2.40;74.73
73284;BME280;61519;60.050;18.582;2023-12-22T04:59:31;96716.41;;;2.18;74.67
73284;BME280;61519;60.050;18.582;2023-12-22T05:01:56;96752.16;;;2.34;74.78
73284;BME280;61519;60.050;18.582;2023-12-22T05:04:22;96757.16;;;2.36;74.61
73284;BME280;61519;60.050;18.582;2023-12-22T05:06:48;96721.03;;;2.16;74.60
73284;BME280;61519;60.050;18.582;2023-12-22T05:09:13;96758.72;;;2.37;74.65
73284;BME280;61519;60.050;18.582;2023-12-22T05:11:39;96744.56;;;2.21;74.75
73284;BME280;61519;60.050;18.582;2023-12-22T05:14:04;96757.94;;;2.36;74.91
73284;BME280;61519;60.050;18.582;2023-12-22T05:16:29;96746.38;;;2.32;74.92
73284;BME280;61519;60.050;18.582;2023-12-22T05:18:57;96730.66;;;2.16;74.80
73284;BME280;61519;60.050;18.582;2023-12-22T05:21:23;96767.91;;;2.39;74.84
73284;BME280;61519;60.050;18.582;2023-12-22T05:23:48;96737.00;;;2.20;74.72
73284;BME280;61519;60.050;18.582;2023-12-22T05:26:18;96755.56;;;2.35;74.75
73284;BME280;61519;60.050;18.582;2023-12-22T05:28:43;96773.53;;;2.36;74.57
73284;BME280;61519;60.050;18.582;2023-12-22T05:31:09;96750.44;;;2.28;74.93
73284;BME280;61519;60.050;18.582;2023-12-22T05:33:34;96755.06;;;2.26;74.90
73284;BME280;61519;60.050;18.582;2023-12-22T05:36:00;96766.63;;;2.30;74.93
73284;BME280;61519;60.050;18.582;2023-12-22T05:38:25;96750.75;;;2.20;74.68
73284;BME280;61519;60.050;18.582;2023-12-22T05:40:50;96765.97;;;2.35;74.36
73284;BME280;61519;60.050;18.582;2023-12-22T05:43:15;96756.09;;;2.25;74.56
73284;BME280;61519;60.050;18.582;2023-12-22T05:45:41;96775.91;;;2.38;74.74
73284;BME280;61519;60.050;18.582;2023-12-22T05:48:06;96751.53;;;2.09;74.91
73284;BME280;61519;60.050;18.582;2023-12-22T05:50:32;96772.38;;;2.32;75.01
73284;BME280;61519;60.050;18.582;2023-12-22T05:52:57;96776.69;;;2.38;74.88
73284;BME280;61519;60.050;18.582;2023-12-22T05:55:23;96785.53;;;2.37;74.92
73284;BME280;61519;60.050;18.582;2023-12-22T05:57:48;96764.00;;;2.30;74.56
73284;BME280;61519;60.050;18.582;2023-12-22T06:00:14;96783.84;;;2.43;74.83
73284;BME280;61519;60.050;18.582;2023-12-22T06:02:40;96778.31;;;2.39;74.73
73284;BME280;61519;60.050;18.582;2023-12-22T06:05:06;96764.81;;;2.31;74.87
73284;BME280;61519;60.050;18.582;2023-12-22T06:07:31;96798.22;;;2.45;74.77
73284;BME280;61519;60.050;18.582;2023-12-22T06:09:57;96793.19;;;2.32;74.46
73284;BME280;61519;60.050;18.582;2023-12-22T06:12:22;96786.31;;;2.38;74.74
73284;BME280;61519;60.050;18.582;2023-12-22T06:14:47;96778.84;;;2.30;74.75
73284;BME280;61519;60.050;18.582;2023-12-22T06:17:13;96802.47;;;2.40;74.49
73284;BME280;61519;60.050;18.582;2023-12-22T06:19:38;96793.19;;;2.32;74.81
73284;BME280;61519;60.050;18.582;2023-12-22T06:22:03;96772.59;;;2.19;74.72
73284;BME280;61519;60.050;18.582;2023-12-22T06:24:29;96823.06;;;2.41;74.69
73284;BME280;61519;60.050;18.582;2023-12-22T06:26:54;96814.34;;;2.36;74.78
73284;BME280;61519;60.050;18.582;2023-12-22T06:29:20;96804.38;;;2.33;74.55
73284;BME280;61519;60.050;18.582;2023-12-22T06:31:45;96826.03;;;2.45;74.62
73284;BME280;61519;60.050;18.582;2023-12-22T06:34:15;96834.63;;;2.45;74.64
73284;BME280;61519;60.050;18.582;2023-12-22T06:36:41;96828.69;;;2.38;74.58
73284;BME280;61519;60.050;18.582;2023-12-22T06:39:06;96833.47;;;2.41;74.63
73284;BME280;61519;60.050;18.582;2023-12-22T06:41:31;96851.38;;;2.49;74.57
73284;BME280;61519;60.050;18.582;2023-12-22T06:43:58;96848.09;;;2.54;74.63
73284;BME280;61519;60.050;18.582;2023-12-22T06:46:25;96843.69;;;2.54;74.59
73284;BME280;61519;60.050;18.582;2023-12-22T06:48:51;96832.44;;;2.42;74.66
73284;BME280;61519;60.050;18.582;2023-12-22T06:51:24;96849.47;;;2.56;74.72
73284;BME280;61519;60.050;18.582;2023-12-22T06:53:51;96847.66;;;2.57;74.66
73284;BME280;61519;60.050;18.582;2023-12-22T06:56:17;96847.44;;;2.58;74.56
73284;BME280;61519;60.050;18.582;2023-12-22T06:58:42;96849.34;;;2.51;74.67
73284;BME280;61519;60.050;18.582;2023-12-22T07:01:08;96851.50;;;2.54;74.45
73284;BME280;61519;60.050;18.582;2023-12-22T07:03:33;96826.78;;;2.34;74.61
73284;BME280;61519;60.050;18.582;2023-12-22T07:05:59;96859.28;;;2.54;74.85
73284;BME280;61519;60.050;18.582;2023-12-22T07:08:24;96863.84;;;2.59;74.54
73284;BME280;61519;60.050;18.582;2023-12-22T07:10:50;96858.28;;;2.55;74.67
73284;BME280;61519;60.050;18.582;2023-12-22T07:13:15;96858.94;;;2.51;74.61
73284;BME280;61519;60.050;18.582;2023-12-22T07:15:41;96868.13;;;2.53;74.39
73284;BME280;61519;60.050;18.582;2023-12-22T07:18:06;96857.56;;;2.48;74.68
73284;BME280;61519;60.050;18.582;2023-12-22T07:20:31;96884.88;;;2.57;74.52
73284;BME280;61519;60.050;18.582;2023-12-22T07:22:56;96893.69;;;2.56;74.64
73284;BME280;61519;60.050;18.582;2023-12-22T07:25:22;96888.47;;;2.56;74.75
73284;BME280;61519;60.050;18.582;2023-12-22T07:27:47;96880.75;;;2.50;74.49
73284;BME280;61519;60.050;18.582;2023-12-22T07:30:13;96897.88;;;2.57;74.81
73284;BME280;61519;60.050;18.582;2023-12-22T07:32:42;96899.44;;;2.58;74.75
73284;BME280;61519;60.050;18.582;2023-12-22T07:35:09;96880.41;;;2.46;74.60
73284;BME280;61519;60.050;18.582;2023-12-22T07:37:35;96904.06;;;2.56;74.55
73284;BME280;61519;60.050;18.582;2023-12-22T07:40:01;96893.75;;;2.50;74.46
73284;BME280;61519;60.050;18.582;2023-12-22T07:42:26;96879.81;;;2.44;74.44
73284;BME280;61519;60.050;18.582;2023-12-22T07:44:51;96903.63;;;2.59;74.72
73284;BME280;61519;60.050;18.582;2023-12-22T07:47:17;96899.53;;;2.52;74.35
73284;BME280;61519;60.050;18.582;2023-12-22T07:49:42;96906.03;;;2.61;74.38
73284;BME280;61519;60.050;18.582;2023-12-22T07:52:08;96895.34;;;2.51;74.67
73284;BME280;61519;60.050;18.582;2023-12-22T07:54:33;96889.09;;;2.40;74.61
73284;BME280;61519;60.050;18.582;2023-12-22T07:56:58;96917.19;;;2.61;74.60
73284;BME280;61519;60.050;18.582;2023-12-22T07:59:24;96916.63;;;2.59;74.80
73284;BME280;61519;60.050;18.582;2023-12-22T08:01:49;96929.78;;;2.64;74.43
73284;BME280;61519;60.050;18.582;2023-12-22T08:04:15;96891.44;;;2.42;74.30
73284;BME280;61519;60.050;18.582;2023-12-22T08:06:40;96922.84;;;2.58;74.52
73284;BME280;61519;60.050;18.582;2023-12-22T08:09:05;96901.50;;;2.38;74.74
73284;BME280;61519;60.050;18.582;2023-12-22T08:11:31;96922.16;;;2.51;74.47
73284;BME280;61519;60.050;18.582;2023-12-22T08:13:56;96942.44;;;2.61;74.72
73284;BME280;61519;60.050;18.582;2023-12-22T08:16:21;96912.47;;;2.40;74.48
73284;BME280;61519;60.050;18.582;2023-12-22T08:18:47;96937.66;;;2.58;75.00
73284;BME280;61519;60.050;18.582;2023-12-22T08:21:13;96945.16;;;2.66;74.65
73284;BME280;61519;60.050;18.582;2023-12-22T08:23:39;96943.22;;;2.61;74.62
73284;BME280;61519;60.050;18.582;2023-12-22T08:26:04;96957.94;;;2.67;74.46
73284;BME280;61519;60.050;18.582;2023-12-22T08:28:29;96940.03;;;2.59;74.51
73284;BME280;61519;60.050;18.582;2023-12-22T08:30:55;96961.50;;;2.73;74.57
73284;BME280;61519;60.050;18.582;2023-12-22T08:33:20;96945.63;;;2.63;74.47
73284;BME280;61519;60.050;18.582;2023-12-22T08:35:45;96966.47;;;2.75;74.59
73284;BME280;61519;60.050;18.582;2023-12-22T08:38:11;96940.63;;;2.61;74.61
73284;BME280;61519;60.050;18.582;2023-12-22T08:40:38;96961.84;;;2.77;74.61
73284;BME280;61519;60.050;18.582;2023-12-22T08:43:03;96963.19;;;2.79;74.49
73284;BME280;61519;60.050;18.582;2023-12-22T08:45:31;96924.66;;;2.58;74.51
73284;BME280;61519;60.050;18.582;2023-12-22T08:47:57;96958.38;;;2.83;74.42
73284;BME280;61519;60.050;18.582;2023-12-22T08:50:23;96945.88;;;2.73;74.40
73284;BME280;61519;60.050;18.582;2023-12-22T08:52:48;96964.16;;;2.85;74.42
73284;BME280;61519;60.050;18.582;2023-12-22T08:55:13;96932.97;;;2.66;74.14
73284;BME280;61519;60.050;18.582;2023-12-22T08:57:39;96956.66;;;2.77;74.40
73284;BME280;61519;60.050;18.582;2023-12-22T09:00:05;96954.84;;;2.77;74.62
73284;BME280;61519;60.050;18.582;2023-12-22T09:02:31;96967.66;;;2.90;74.50
73284;BME280;61519;60.050;18.582;2023-12-22T09:04:56;96975.25;;;2.92;74.22
73284;BME280;61519;60.050;18.582;2023-12-22T09:07:21;96963.78;;;2.81;74.49
73284;BME280;61519;60.050;18.582;2023-12-22T09:09:47;96977.84;;;2.92;74.47
73284;BME280;61519;60.050;18.582;2023-12-22T09:12:13;96949.41;;;2.79;74.18
73284;BME280;61519;60.050;18.582;2023-12-22T09:14:38;96955.88;;;2.88;74.32
73284;BME280;61519;60.050;18.582;2023-12-22T09:17:03;96961.25;;;2.93;74.35
73284;BME280;61519;60.050;18.582;2023-12-22T09:19:32;96965.97;;;2.96;74.54
73284;BME280;61519;60.050;18.582;2023-12-22T09:21:58;96971.75;;;2.98;74.48
73284;BME280;61519;60.050;18.582;2023-12-22T09:24:23;96966.09;;;3.01;74.38
73284;BME280;61519;60.050;18.582;2023-12-22T09:26:49;96950.03;;;2.92;74.45
73284;BME280;61519;60.050;18.582;2023-12-22T09:29:15;96947.19;;;2.94;74.14
73284;BME280;61519;60.050;18.582;2023-12-22T09:31:41;96974.47;;;3.03;74.41
73284;BME280;61519;60.050;18.582;2023-12-22T09:34:07;96945.25;;;2.89;74.08
73284;BME280;61519;60.050;18.582;2023-12-22T09:36:32;96961.47;;;3.03;74.12
73284;BME280;61519;60.050;18.582;2023-12-22T09:38:57;96953.53;;;2.98;74.05
73284;BME280;61519;60.050;18.582;2023-12-22T09:41:23;96959.09;;;3.01;74.26
73284;BME280;61519;60.050;18.582;2023-12-22T09:43:50;96963.06;;;3.04;74.10
73284;BME280;61519;60.050;18.582;2023-12-22T09:46:18;96934.50;;;2.86;74.42
73284;BME280;61519;60.050;18.582;2023-12-22T09:48:45;96940.84;;;2.90;74.03
73284;BME280;61519;60.050;18.582;2023-12-22T09:51:11;96951.81;;;2.92;74.01
73284;BME280;61519;60.050;18.582;2023-12-22T09:53:39;96940.03;;;2.89;74.16
73284;BME280;61519;60.050;18.582;2023-12-22T09:56:07;96985.16;;;3.13;73.98
73284;BME280;61519;60.050;18.582;2023-12-22T09:58:33;96971.81;;;3.09;74.22
73284;BME280;61519;60.050;18.582;2023-12-22T10:01:02;96951.97;;;2.97;74.03
73284;BME280;61519;60.050;18.582;2023-12-22T10:03:31;96978.72;;;3.15;74.18
73284;BME280;61519;60.050;18.582;2023-12-22T10:05:58;96976.34;;;3.14;74.05
73284;BME280;61519;60.050;18.582;2023-12-22T10:08:24;96957.41;;;3.07;74.19
73284;BME280;61519;60.050;18.582;2023-12-22T10:10:50;96959.00;;;3.08;73.94
73284;BME280;61519;60.050;18.582;2023-12-22T10:13:17;96932.47;;;2.88;74.11
73284;BME280;61519;60.050;18.582;2023-12-22T10:15:43;96942.56;;;2.96;73.96
73284;BME280;61519;60.050;18.582;2023-12-22T10:18:10;96976.91;;;3.16;73.83
73284;BME280;61519;60.050;18.582;2023-12-22T10:20:35;96957.88;;;3.04;73.99
73284;BME280;61519;60.050;18.582;2023-12-22T10:23:01;96963.34;;;3.14;73.91
73284;BME280;61519;60.050;18.582;2023-12-22T10:25:30;96981.59;;;3.25;73.87
73284;BME280;61519;60.050;18.582;2023-12-22T10:27:56;96983.84;;;3.22;73.96
73284;BME280;61519;60.050;18.582;2023-12-22T10:30:22;96961.03;;;3.06;74.06
73284;BME280;61519;60.050;18.582;2023-12-22T10:32:50;96981.31;;;3.15;74.05
73284;BME280;61519;60.050;18.582;2023-12-22T10:35:16;96933.91;;;2.84;73.89
73284;BME280;61519;60.050;18.582;2023-12-22T10:37:41;96974.06;;;3.06;73.99
73284;BME280;61519;60.050;18.582;2023-12-22T10:40:08;96981.66;;;3.19;73.73
73284;BME280;61519;60.050;18.582;2023-12-22T10:42:35;96949.94;;;2.99;73.77
73284;BME280;61519;60.050;18.582;2023-12-22T10:45:00;96984.16;;;3.14;73.73
73284;BME280;61519;60.050;18.582;2023-12-22T10:47:28;96964.22;;;3.08;73.75
73284;BME280;61519;60.050;18.582;2023-12-22T10:49:53;96977.16;;;3.14;73.77
73284;BME280;61519;60.050;18.582;2023-12-22T10:52:19;96980.09;;;3.18;73.62
73284;BME280;61519;60.050;18.582;2023-12-22T10:54:46;96960.81;;;3.07;74.12
73284;BME280;61519;60.050;18.582;2023-12-22T10:57:17;96978.06;;;3.20;73.74
73284;BME280;61519;60.050;18.582;2023-12-22T10:59:46;96972.16;;;3.13;73.93
73284;BME280;61519;60.050;18.582;2023-12-22T11:02:16;96977.34;;;3.13;73.82
73284;BME280;61519;60.050;18.582;2023-12-22T11:04:47;96983.00;;;3.10;73.66
73284;BME280;61519;60.050;18.582;2023-12-22T11:07:16;96978.00;;;2.97;73.67
73284;BME280;61519;60.050;18.582;2023-12-22T11:09:47;96932.19;;;2.78;73.78
73284;BME280;61519;60.050;18.582;2023-12-22T11:12:16;96963.03;;;2.92;73.73
73284;BME280;61519;60.050;18.582;2023-12-22T11:14:42;96967.22;;;2.93;73.74
73284;BME280;61519;60.050;18.582;2023-12-22T11:17:09;96929.91;;;2.69;73.92
73284;BME280;61519;60.050;18.582;2023-12-22T11:19:35;96957.34;;;2.84;73.95
73284;BME280;61519;60.050;18.582;2023-12-22T11:22:03;96924.13;;;2.67;73.90
73284;BME280;61519;60.050;18.582;2023-12-22T11:24:29;96935.38;;;2.80;74.05
73284;BME280;61519;60.050;18.582;2023-12-22T11:26:57;96937.56;;;2.83;74.10
73284;BME280;61519;60.050;18.582;2023-12-22T11:29:24;96968.72;;;3.01;73.90
73284;BME280;61519;60.050;18.582;2023-12-22T11:31:54;96961.47;;;3.03;73.93
73284;BME280;61519;60.050;18.582;2023-12-22T11:34:21;96969.84;;;3.05;73.71
73284;BME280;61519;60.050;18.582;2023-12-22T11:36:47;96960.00;;;3.07;74.02
73284;BME280;61519;60.050;18.582;2023-12-22T11:39:14;96951.25;;;2.90;73.90
73284;BME280;61519;60.050;18.582;2023-12-22T11:41:40;96977.09;;;3.03;73.74
73284;BME280;61519;60.050;18.582;2023-12-22T11:44:06;96947.81;;;2.78;73.88
73284;BME280;61519;60.050;18.582;2023-12-22T11:46:32;96979.13;;;3.01;74.11
73284;BME280;61519;60.050;18.582;2023-12-22T11:48:59;96962.81;;;2.94;73.74
73284;BME280;61519;60.050;18.582;2023-12-22T11:51:31;96971.53;;;2.99;73.80
73284;BME280;61519;60.050;18.582;2023-12-22T11:53:57;96960.78;;;2.96;73.93
73284;BME280;61519;60.050;18.582;2023-12-22T11:56:24;96960.09;;;2.89;73.74
73284;BME280;61519;60.050;18.582;2023-12-22T11:58:52;96974.72;;;3.01;73.85
73284;BME280;61519;60.050;18.582;2023-12-22T12:01:23;96971.19;;;2.96;73.91
73284;BME280;61519;60.050;18.582;2023-12-22T12:06:30;96979.56;;;2.98;73.76
73284;BME280;61519;60.050;18.582;2023-12-22T12:08:57;96963.41;;;2.78;73.86
73284;BME280;61519;60.050;18.582;2023-12-22T12:12:25;96968.09;;;2.87;73.86
73284;BME280;61519;60.050;18.582;2023-12-22T12:14:32;96975.81;;;2.94;73.82
73284;BME280;61519;60.050;18.582;2023-12-22T12:17:08;96986.81;;;2.96;73.90
73284;BME280;61519;60.050;18.582;2023-12-22T12:19:36;96968.56;;;2.84;73.81
73284;BME280;61519;60.050;18.582;2023-12-22T12:22:02;96967.19;;;2.82;73.78
73284;BME280;61519;60.050;18.582;2023-12-22T12:24:28;96956.19;;;2.80;73.83
73284;BME280;61519;60.050;18.582;2023-12-22T12:26:53;96984.50;;;2.88;73.99
73284;BME280;61519;60.050;18.582;2023-12-22T12:29:22;96982.94;;;2.87;73.97
73284;BME280;61519;60.050;18.582;2023-12-22T12:31:47;96984.25;;;2.78;73.97
73284;BME280;61519;60.050;18.582;2023-12-22T12:34:13;96994.22;;;2.81;74.01
73284;BME280;61519;60.050;18.582;2023-12-22T12:36:39;96982.50;;;2.72;73.96
73284;BME280;61519;60.050;18.582;2023-12-22T12:39:07;96996.25;;;2.79;73.83
73284;BME280;61519;60.050;18.582;2023-12-22T12:41:36;96973.56;;;2.67;74.07
73284;BME280;61519;60.050;18.582;2023-12-22T12:44:06;96979.91;;;2.72;73.87
73284;BME280;61519;60.050;18.582;2023-12-22T12:46:39;97001.22;;;2.80;73.84
73284;BME280;61519;60.050;18.582;2023-12-22T12:49:05;96997.81;;;2.80;73.89
73284;BME280;61519;60.050;18.582;2023-12-22T12:51:35;97005.06;;;2.78;73.83
73284;BME280;61519;60.050;18.582;2023-12-22T12:54:02;97003.91;;;2.74;73.95
73284;BME280;61519;60.050;18.582;2023-12-22T12:56:28;96990.78;;;2.68;74.15